createdAt,value
2022-10-05T00:00:09.582Z,19.88
2022-10-05T00:02:21.779Z,20.50
2022-10-05T00:04:30.599Z,21.25
2022-10-05T00:06:37.884Z,22.70
2022-10-05T00:08:45.936Z,24.55
2022-10-05T00:10:52.963Z,25.58
2022-10-05T00:12:59.836Z,24.30
2022-10-05T00:15:16.134Z,26.85
2022-10-05T00:17:24.900Z,27.08
2022-10-05T00:19:36.127Z,26.92
2022-10-05T00:21:43.059Z,25.98
2022-10-05T00:23:49.979Z,26.00
2022-10-05T00:25:56.752Z,26.63
2022-10-05T00:28:05.266Z,27.77
2022-10-05T00:30:17.922Z,28.88
2022-10-05T00:32:25.260Z,29.20
2022-10-05T00:34:36.332Z,30.15
2022-10-05T00:36:44.451Z,28.17
2022-10-05T00:38:52.231Z,26.02
2022-10-05T00:41:08.732Z,26.73
2022-10-05T00:43:38.943Z,26.80
2022-10-05T00:45:51.599Z,26.85
2022-10-05T00:48:07.040Z,25.13
2022-10-05T00:50:29.101Z,24.67
2022-10-05T00:52:43.213Z,25.25
2022-10-05T00:54:57.512Z,21.73
2022-10-05T00:57:18.518Z,19.15
2022-10-05T00:59:34.096Z,18.27
2022-10-05T01:01:47.932Z,19.35
2022-10-05T01:04:03.817Z,18.60
2022-10-05T01:06:18.065Z,18.95
2022-10-05T01:08:34.257Z,16.48
2022-10-05T01:10:47.891Z,16.80
2022-10-05T01:13:02.958Z,16.02
2022-10-05T01:15:16.190Z,13.23
2022-10-05T01:17:31.195Z,13.13
2022-10-05T01:20:10.023Z,13.10
2022-10-05T01:22:33.226Z,11.80
2022-10-05T01:24:47.269Z,11.77
2022-10-05T01:27:10.992Z,10.68
2022-10-05T01:29:26.209Z,11.13
2022-10-05T01:31:40.447Z,12.13
2022-10-05T01:33:55.428Z,10.60
2022-10-05T01:36:08.439Z,10.18
2022-10-05T01:38:26.985Z,10.68
2022-10-05T01:40:39.903Z,10.63
2022-10-05T01:42:59.985Z,10.10
2022-10-05T01:45:17.201Z,9.45
2022-10-05T01:47:34.270Z,8.57
2022-10-05T01:49:45.955Z,9.35
2022-10-05T01:52:00.971Z,9.82
2022-10-05T01:54:19.468Z,9.95
2022-10-05T01:56:35.764Z,9.95
2022-10-05T01:58:53.848Z,8.60
2022-10-05T02:01:08.028Z,8.70
2022-10-05T02:03:20.500Z,8.38
2022-10-05T02:05:32.662Z,8.23
2022-10-05T02:07:45.567Z,7.85
2022-10-05T02:09:56.738Z,7.30
2022-10-05T02:12:07.965Z,7.05
2022-10-05T02:14:18.525Z,7.13
2022-10-05T02:16:32.312Z,6.97
2022-10-05T02:18:43.743Z,7.00
2022-10-05T02:20:52.514Z,6.85
2022-10-05T02:23:03.432Z,5.82
2022-10-05T02:25:14.455Z,6.72
2022-10-05T02:27:25.790Z,7.07
2022-10-05T02:29:36.907Z,6.35
2022-10-05T02:31:52.271Z,6.70
2022-10-05T02:34:27.931Z,6.85
2022-10-05T02:36:44.867Z,6.50
2022-10-05T02:39:03.627Z,5.57
2022-10-05T02:41:23.419Z,4.72
2022-10-05T02:43:41.198Z,4.40
2022-10-05T02:45:57.095Z,3.80
2022-10-05T02:48:17.015Z,3.42
2022-10-05T02:50:30.443Z,4.07
2022-10-05T02:52:43.106Z,3.60
2022-10-05T02:54:58.017Z,3.33
2022-10-05T02:57:12.212Z,3.60
2022-10-05T02:59:25.026Z,3.80
2022-10-05T03:01:38.210Z,4.18
2022-10-05T03:03:49.886Z,4.15
2022-10-05T03:06:16.474Z,3.80
2022-10-05T03:08:30.112Z,4.15
2022-10-05T03:10:46.914Z,4.68
2022-10-05T03:13:09.095Z,3.53
2022-10-05T03:15:40.229Z,3.50
2022-10-05T03:22:26.156Z,3.42
2022-10-05T03:24:58.987Z,3.13
2022-10-05T03:27:10.934Z,3.40
2022-10-05T03:29:30.708Z,3.00
2022-10-05T03:31:44.648Z,4.43
2022-10-05T03:33:59.054Z,3.60
2022-10-05T03:36:20.516Z,3.40
2022-10-05T03:38:37.784Z,5.65
2022-10-05T03:40:53.829Z,4.57
2022-10-05T03:43:15.136Z,3.67
2022-10-05T03:45:30.819Z,3.15
2022-10-05T03:47:44.603Z,3.08
2022-10-05T03:50:08.785Z,3.03
2022-10-05T03:52:23.084Z,2.95
2022-10-05T03:54:35.896Z,2.90
2022-10-05T03:56:47.367Z,3.05
2022-10-05T03:58:59.168Z,2.78
2022-10-05T04:01:11.872Z,3.00
2022-10-05T04:05:31.670Z,3.30
2022-10-05T04:07:48.471Z,3.15
2022-10-05T04:09:57.811Z,2.80
2022-10-05T04:12:13.799Z,2.75
2022-10-05T04:14:25.689Z,3.00
2022-10-05T04:16:36.719Z,2.92
2022-10-05T04:18:47.991Z,3.72
2022-10-05T04:20:59.318Z,3.10
2022-10-05T04:23:16.141Z,3.10
2022-10-05T04:25:27.965Z,3.10
2022-10-05T04:27:40.279Z,3.33
2022-10-05T04:29:55.604Z,3.13
2022-10-05T04:32:24.582Z,2.75
2022-10-05T04:34:52.152Z,3.17
2022-10-05T04:37:03.726Z,2.85
2022-10-05T04:39:24.271Z,3.20
2022-10-05T04:41:51.832Z,2.92
2022-10-05T04:44:17.096Z,2.60
2022-10-05T04:46:37.624Z,3.30
2022-10-05T04:49:11.951Z,4.17
2022-10-05T04:51:31.264Z,3.10
2022-10-05T04:53:44.541Z,3.60
2022-10-05T04:56:01.090Z,3.28
2022-10-05T04:58:22.249Z,3.30
2022-10-05T05:00:32.905Z,2.72
2022-10-05T05:03:03.442Z,2.97
2022-10-05T05:05:26.138Z,2.80
2022-10-05T05:07:48.018Z,3.30
2022-10-05T05:10:16.597Z,3.47
2022-10-05T05:12:31.850Z,2.97
2022-10-05T05:14:53.591Z,2.88
2022-10-05T05:19:23.162Z,2.70
2022-10-05T05:21:41.605Z,3.05
2022-10-05T05:23:53.703Z,2.83
2022-10-05T05:26:10.973Z,3.58
2022-10-05T05:28:33.780Z,4.07
2022-10-05T05:30:47.452Z,3.20
2022-10-05T05:33:18.237Z,2.92
2022-10-05T05:36:04.026Z,3.10
2022-10-05T05:38:24.158Z,3.05
2022-10-05T05:40:35.334Z,2.90
2022-10-05T05:42:51.847Z,2.63
2022-10-05T05:45:08.846Z,3.00
2022-10-05T05:47:22.252Z,2.95
2022-10-05T05:49:38.347Z,2.78
2022-10-05T05:51:50.308Z,2.50
2022-10-05T05:54:11.111Z,3.00
2022-10-05T05:56:20.859Z,2.53
2022-10-05T05:58:32.651Z,2.65
2022-10-05T06:00:47.708Z,2.67
2022-10-05T06:03:07.422Z,2.47
2022-10-05T06:05:29.052Z,2.88
2022-10-05T06:07:38.949Z,2.75
2022-10-05T06:09:50.275Z,2.45
2022-10-05T06:12:09.797Z,2.90
2022-10-05T06:14:21.488Z,2.90
2022-10-05T06:18:43.938Z,2.65
2022-10-05T06:20:58.081Z,2.90
2022-10-05T06:23:09.413Z,2.40
2022-10-05T06:25:28.830Z,2.70
2022-10-05T06:27:40.005Z,2.70
2022-10-05T06:30:05.055Z,2.88
2022-10-05T06:32:28.775Z,2.80
2022-10-05T06:34:55.105Z,2.90
2022-10-05T06:37:05.665Z,3.15
2022-10-05T06:39:35.120Z,2.92
2022-10-05T06:41:51.619Z,2.92
2022-10-05T06:44:02.282Z,2.88
2022-10-05T06:46:26.770Z,2.60
2022-10-05T06:49:09.997Z,2.72
2022-10-05T06:51:42.880Z,2.25
2022-10-05T06:54:05.936Z,2.92
2022-10-05T06:56:17.372Z,3.45
2022-10-05T06:58:42.417Z,2.80
2022-10-05T07:00:57.315Z,2.50
2022-10-05T07:03:11.681Z,2.70
2022-10-05T07:05:53.984Z,2.53
2022-10-05T07:08:07.361Z,2.95
2022-10-05T07:10:25.129Z,2.75
2022-10-05T07:12:47.325Z,2.80
2022-10-05T07:15:06.077Z,3.08
2022-10-05T07:17:27.954Z,3.25
2022-10-05T07:19:46.500Z,2.88
2022-10-05T07:22:04.516Z,3.30
2022-10-05T07:24:28.411Z,3.13
2022-10-05T07:26:40.104Z,2.97
2022-10-05T07:31:02.228Z,3.63
2022-10-05T07:33:16.491Z,3.00
2022-10-05T07:35:49.220Z,2.97
2022-10-05T07:37:58.347Z,3.72
2022-10-05T07:40:21.093Z,3.47
2022-10-05T07:42:47.356Z,3.20
2022-10-05T07:45:05.208Z,3.13
2022-10-05T07:47:18.990Z,2.97
2022-10-05T07:49:41.429Z,3.42
2022-10-05T07:51:51.327Z,3.50
2022-10-05T07:54:10.694Z,3.28
2022-10-05T07:56:24.685Z,3.33
2022-10-05T07:58:34.270Z,2.83
2022-10-05T08:01:03.164Z,3.03
2022-10-05T08:03:18.236Z,3.15
2022-10-05T08:05:29.617Z,3.80
2022-10-05T08:07:39.759Z,3.42
2022-10-05T08:09:52.780Z,3.33
2022-10-05T08:12:11.018Z,3.30
2022-10-05T08:14:25.677Z,2.78
2022-10-05T08:16:39.619Z,3.20
2022-10-05T08:18:57.456Z,3.42
2022-10-05T08:21:06.682Z,3.03
2022-10-05T08:23:37.002Z,3.42
2022-10-05T08:25:53.040Z,3.30
2022-10-05T08:28:11.586Z,3.08
2022-10-05T08:30:19.743Z,3.03
2022-10-05T08:32:29.232Z,3.22
2022-10-05T08:34:46.855Z,3.10
2022-10-05T08:37:01.307Z,2.78
2022-10-05T08:39:17.143Z,2.70
2022-10-05T08:42:08.569Z,2.78
2022-10-05T08:44:39.549Z,2.90
2022-10-05T08:47:12.690Z,3.10
2022-10-05T08:49:40.147Z,3.42
2022-10-05T08:52:25.680Z,2.88
2022-10-05T08:54:48.323Z,3.72
2022-10-05T08:57:03.745Z,2.92
2022-10-05T08:59:47.279Z,3.40
2022-10-05T09:02:20.719Z,3.50
2022-10-05T09:04:38.763Z,3.45
2022-10-05T09:07:11.548Z,3.30
2022-10-05T09:09:47.093Z,3.47
2022-10-05T09:12:09.123Z,3.58
2022-10-05T09:14:34.684Z,3.72
2022-10-05T09:17:19.345Z,3.72
2022-10-05T09:19:54.584Z,3.45
2022-10-05T09:22:06.116Z,3.28
2022-10-05T09:24:29.120Z,3.38
2022-10-05T09:26:56.270Z,3.65
2022-10-05T09:29:36.168Z,3.20
2022-10-05T09:32:01.372Z,3.67
2022-10-05T09:34:40.916Z,3.00
2022-10-05T09:37:24.449Z,3.50
2022-10-05T09:40:06.290Z,3.25
2022-10-05T09:42:36.005Z,3.15
2022-10-05T09:45:21.038Z,3.10
2022-10-05T09:48:05.933Z,3.33
2022-10-05T09:51:11.231Z,3.00
2022-10-05T09:54:00.495Z,3.10
2022-10-05T09:56:30.566Z,3.97
2022-10-05T09:59:09.387Z,3.28
2022-10-05T10:01:38.033Z,3.20
2022-10-05T10:04:10.906Z,3.60
2022-10-05T10:06:34.574Z,3.20
2022-10-05T10:08:54.147Z,3.40
2022-10-05T10:11:14.541Z,3.30
2022-10-05T10:14:02.628Z,3.58
2022-10-05T10:16:25.305Z,3.10
2022-10-05T10:18:47.814Z,3.10
2022-10-05T10:21:23.771Z,3.17
2022-10-05T10:23:50.101Z,3.40
2022-10-05T10:29:40.824Z,3.55
2022-10-05T10:32:21.388Z,3.03
2022-10-05T10:34:47.668Z,3.65
2022-10-05T10:37:14.715Z,3.55
2022-10-05T10:39:31.470Z,3.88
2022-10-05T10:42:11.880Z,3.33
2022-10-05T10:44:52.293Z,4.15
2022-10-05T10:47:23.642Z,3.83
2022-10-05T10:49:45.669Z,3.55
2022-10-05T10:52:20.963Z,3.60
2022-10-05T10:55:14.579Z,3.42
2022-10-05T10:57:34.971Z,3.80
2022-10-05T11:00:23.317Z,3.83
2022-10-05T11:02:44.709Z,4.03
2022-10-05T11:05:06.459Z,4.72
2022-10-05T11:07:37.038Z,4.35
2022-10-05T11:10:22.362Z,4.05
2022-10-05T11:13:02.004Z,4.47
2022-10-05T11:15:38.351Z,4.50
2022-10-05T11:18:10.297Z,4.28
2022-10-05T11:20:59.804Z,4.90
2022-10-05T11:23:25.982Z,5.10
2022-10-05T11:26:09.621Z,5.13
2022-10-05T11:28:59.142Z,4.38
2022-10-05T11:31:42.145Z,5.00
2022-10-05T11:34:07.882Z,4.80
2022-10-05T11:36:49.827Z,4.82
2022-10-05T11:39:24.152Z,5.30
2022-10-05T11:41:59.332Z,5.10
2022-10-05T11:44:40.257Z,5.53
2022-10-05T11:46:55.511Z,6.10
2022-10-05T11:49:18.434Z,6.20
2022-10-05T11:51:47.520Z,6.47
2022-10-05T11:54:00.697Z,6.40
2022-10-05T11:56:12.074Z,6.55
2022-10-05T11:58:23.149Z,6.45
2022-10-05T12:00:37.753Z,6.78
2022-10-05T12:03:17.506Z,7.00
2022-10-05T12:05:27.650Z,6.47
2022-10-05T12:07:47.732Z,6.25
2022-10-05T12:10:22.256Z,6.93
2022-10-05T12:12:32.971Z,6.88
2022-10-05T12:14:51.620Z,6.82
2022-10-05T12:17:06.023Z,8.45
2022-10-05T12:19:18.170Z,8.55
2022-10-05T12:21:37.077Z,7.68
2022-10-05T12:23:49.122Z,7.15
2022-10-05T12:28:12.244Z,7.55
2022-10-05T12:30:32.428Z,7.85
2022-10-05T12:32:52.460Z,7.13
2022-10-05T12:35:09.319Z,7.20
2022-10-05T12:37:44.914Z,6.90
2022-10-05T12:39:59.713Z,7.28
2022-10-05T12:42:16.791Z,6.60
2022-10-05T12:44:44.709Z,6.68
2022-10-05T12:47:02.795Z,7.00
2022-10-05T12:49:40.184Z,6.90
2022-10-05T12:51:53.715Z,6.70
2022-10-05T12:54:08.421Z,7.07
2022-10-05T12:56:22.568Z,6.72
2022-10-05T12:58:39.735Z,7.20
2022-10-05T13:00:54.773Z,7.25
2022-10-05T13:03:07.498Z,6.57
2022-10-05T13:05:36.249Z,6.72
2022-10-05T13:07:58.123Z,6.93
2022-10-05T13:10:20.102Z,6.32
2022-10-05T13:12:38.703Z,6.72
2022-10-05T13:14:59.194Z,7.30
2022-10-05T13:17:17.180Z,6.43
2022-10-05T13:19:42.129Z,7.18
2022-10-05T13:22:17.061Z,6.90
2022-10-05T13:24:27.774Z,6.45
2022-10-05T13:26:38.646Z,6.68
2022-10-05T13:28:49.152Z,7.07
2022-10-05T13:31:10.215Z,7.53
2022-10-05T13:33:23.741Z,7.80
2022-10-05T13:35:47.117Z,7.43
2022-10-05T13:38:03.544Z,7.68
2022-10-05T13:40:22.700Z,7.20
2022-10-05T13:42:38.803Z,7.97
2022-10-05T13:44:52.641Z,7.75
2022-10-05T13:47:04.838Z,8.25
2022-10-05T13:49:24.206Z,8.75
2022-10-05T13:51:39.721Z,7.57
2022-10-05T13:53:51.728Z,7.30
2022-10-05T13:56:03.980Z,7.57
2022-10-05T13:58:21.139Z,7.47
2022-10-05T14:00:30.709Z,7.90
2022-10-05T14:02:44.257Z,7.70
2022-10-05T14:04:53.696Z,8.15
2022-10-05T14:07:16.956Z,7.63
2022-10-05T14:09:37.654Z,8.05
2022-10-05T14:11:53.027Z,8.43
2022-10-05T14:14:16.172Z,8.35
2022-10-05T14:16:26.012Z,9.10
2022-10-05T14:18:34.131Z,8.05
2022-10-05T14:20:41.312Z,8.35
2022-10-05T14:23:01.039Z,8.27
2022-10-05T14:25:20.407Z,8.80
2022-10-05T14:27:29.844Z,7.47
2022-10-05T14:29:40.810Z,8.20
2022-10-05T14:31:56.253Z,8.48
2022-10-05T14:34:29.684Z,8.57
2022-10-05T14:36:41.268Z,8.40
2022-10-05T14:38:58.791Z,8.30
2022-10-05T14:41:20.832Z,8.98
2022-10-05T14:43:27.849Z,8.93
2022-10-05T14:45:35.041Z,8.23
2022-10-05T14:47:51.224Z,8.40
2022-10-05T14:50:18.119Z,8.88
2022-10-05T14:52:35.691Z,8.13
2022-10-05T14:54:50.152Z,8.48
2022-10-05T14:57:19.405Z,8.35
2022-10-05T14:59:51.973Z,8.23
2022-10-05T15:02:03.859Z,8.70
2022-10-05T15:04:26.559Z,9.25
2022-10-05T15:06:40.396Z,8.18
2022-10-05T15:08:58.843Z,8.00
2022-10-05T15:11:10.681Z,8.02
2022-10-05T15:13:21.551Z,7.72
2022-10-05T15:15:35.135Z,8.68
2022-10-05T15:17:46.819Z,8.50
2022-10-05T15:20:06.210Z,9.05
2022-10-05T15:22:35.647Z,8.45
2022-10-05T15:24:47.280Z,8.27
2022-10-05T15:26:55.945Z,8.32
2022-10-05T15:29:18.590Z,7.82
2022-10-05T15:31:34.217Z,8.68
2022-10-05T15:33:48.924Z,8.90
2022-10-05T15:36:09.233Z,9.07
2022-10-05T15:38:26.173Z,9.20
2022-10-05T15:40:39.757Z,8.85
2022-10-05T15:42:46.680Z,9.23
2022-10-05T15:45:06.447Z,9.55
2022-10-05T15:47:19.945Z,8.50
2022-10-05T15:49:34.028Z,8.52
2022-10-05T15:51:53.449Z,7.93
2022-10-05T15:54:24.278Z,7.95
2022-10-05T15:56:37.799Z,8.55
2022-10-05T15:58:54.009Z,9.10
2022-10-05T16:01:08.892Z,8.50
2022-10-05T16:03:25.319Z,8.80
2022-10-05T16:05:59.682Z,8.65
2022-10-05T16:08:24.107Z,8.90
2022-10-05T16:10:34.477Z,9.65
2022-10-05T16:12:52.169Z,10.98
2022-10-05T16:15:17.209Z,10.13
2022-10-05T16:17:49.106Z,10.38
2022-10-05T16:20:13.508Z,10.52
2022-10-05T16:22:28.467Z,10.70
2022-10-05T16:24:53.212Z,8.85
2022-10-05T16:27:03.055Z,8.95
2022-10-05T16:29:14.076Z,9.55
2022-10-05T16:31:25.085Z,9.63
2022-10-05T16:33:46.894Z,10.35
2022-10-05T16:36:05.216Z,10.90
2022-10-05T16:38:25.746Z,12.38
2022-10-05T16:40:40.008Z,11.95
2022-10-05T16:42:56.200Z,10.73
2022-10-05T16:45:14.629Z,11.25
2022-10-05T16:47:37.860Z,12.20
2022-10-05T16:49:55.481Z,11.20
2022-10-05T16:52:03.942Z,10.50
2022-10-05T16:54:20.846Z,10.55
2022-10-05T16:56:31.823Z,11.00
2022-10-05T16:58:56.206Z,11.20
2022-10-05T17:01:18.843Z,10.82
2022-10-05T17:03:48.357Z,11.30
2022-10-05T17:06:25.899Z,11.02
2022-10-05T17:08:56.634Z,11.13
2022-10-05T17:11:17.149Z,11.00
2022-10-05T17:13:40.335Z,11.05
2022-10-05T17:16:05.311Z,10.85
2022-10-05T17:18:30.435Z,12.07
2022-10-05T17:20:50.214Z,11.13
2022-10-05T17:23:05.076Z,11.07
2022-10-05T17:25:19.324Z,11.15
2022-10-05T17:27:36.231Z,11.40
2022-10-05T17:29:53.348Z,11.55
2022-10-05T17:32:13.892Z,11.82
2022-10-05T17:34:31.452Z,11.20
2022-10-05T17:36:49.042Z,11.98
2022-10-05T17:39:16.693Z,11.43
2022-10-05T17:41:29.651Z,11.93
2022-10-05T17:43:37.405Z,12.30
2022-10-05T17:46:03.121Z,12.45
2022-10-05T17:48:13.470Z,11.55
2022-10-05T17:50:57.415Z,11.77
2022-10-05T17:53:40.956Z,10.95
2022-10-05T17:55:50.025Z,11.60
2022-10-05T17:57:59.567Z,10.10
2022-10-05T18:00:07.937Z,11.05
2022-10-05T18:02:23.538Z,11.40
2022-10-05T18:04:40.819Z,11.57
2022-10-05T18:06:53.753Z,11.43
2022-10-05T18:09:29.989Z,11.13
2022-10-05T18:11:44.057Z,11.40
2022-10-05T18:13:52.523Z,11.10
2022-10-05T18:15:59.229Z,11.80
2022-10-05T18:18:59.166Z,12.15
2022-10-05T18:21:41.462Z,11.85
2022-10-05T18:24:03.779Z,11.23
2022-10-05T18:26:24.847Z,11.10
2022-10-05T18:28:42.785Z,11.80
2022-10-05T18:31:12.831Z,11.75
2022-10-05T18:33:58.699Z,10.63
2022-10-05T18:36:17.295Z,11.75
2022-10-05T18:38:39.224Z,13.05
2022-10-05T18:43:03.395Z,11.60
2022-10-05T18:45:24.780Z,11.90
2022-10-05T18:47:38.261Z,12.15
2022-10-05T18:49:57.248Z,11.90
2022-10-05T18:52:09.449Z,12.00
2022-10-05T18:54:32.832Z,10.10
2022-10-05T18:56:44.313Z,10.52
2022-10-05T18:59:02.449Z,9.68
2022-10-05T19:01:32.585Z,8.75
2022-10-05T19:03:47.437Z,8.82
2022-10-05T19:06:01.578Z,7.90
2022-10-05T19:08:13.470Z,8.48
2022-10-05T19:10:28.789Z,7.43
2022-10-05T19:12:47.543Z,7.45
2022-10-05T19:15:05.789Z,7.40
2022-10-05T19:17:26.748Z,7.03
2022-10-05T19:19:48.256Z,6.47
2022-10-05T19:22:04.028Z,7.18
2022-10-05T19:24:34.734Z,6.47
2022-10-05T19:26:56.037Z,6.22
2022-10-05T19:29:09.960Z,7.05
2022-10-05T19:31:32.437Z,6.75
2022-10-05T19:33:56.066Z,6.43
2022-10-05T19:36:16.370Z,6.32
2022-10-05T19:38:32.155Z,6.97
2022-10-05T19:40:44.794Z,5.55
2022-10-05T19:43:15.329Z,5.60
2022-10-05T19:45:26.724Z,6.13
2022-10-05T19:47:47.512Z,6.03
2022-10-05T19:50:21.543Z,6.55
2022-10-05T19:52:32.096Z,6.10
2022-10-05T19:54:39.098Z,6.00
2022-10-05T19:56:53.762Z,6.47
2022-10-05T19:59:02.023Z,6.00
2022-10-05T20:01:09.430Z,6.50
2022-10-05T20:03:20.584Z,5.90
2022-10-05T20:05:28.986Z,5.72
2022-10-05T20:07:35.983Z,6.32
2022-10-05T20:09:58.870Z,5.30
2022-10-05T20:12:05.484Z,5.50
2022-10-05T20:14:23.730Z,5.75
2022-10-05T20:16:51.242Z,5.75
2022-10-05T20:19:14.389Z,5.60
2022-10-05T20:21:47.293Z,5.63
2022-10-05T20:24:13.123Z,5.68
2022-10-05T20:26:56.682Z,5.50
2022-10-05T20:29:03.603Z,5.13
2022-10-05T20:31:10.887Z,5.50
2022-10-05T20:33:17.488Z,4.97
2022-10-05T20:35:24.781Z,4.65
2022-10-05T20:37:33.323Z,4.50
2022-10-05T20:39:40.072Z,4.70
2022-10-05T20:41:47.207Z,4.55
2022-10-05T20:43:55.774Z,4.78
2022-10-05T20:46:03.502Z,4.28
2022-10-05T20:48:10.742Z,4.13
2022-10-05T20:50:18.031Z,4.45
2022-10-05T20:52:24.906Z,4.45
2022-10-05T20:54:34.400Z,4.22
2022-10-05T20:56:43.547Z,5.03
2022-10-05T20:58:50.362Z,4.90
2022-10-05T21:01:13.682Z,4.35
2022-10-05T21:03:20.649Z,4.13
2022-10-05T21:05:28.033Z,4.70
2022-10-05T21:07:35.934Z,4.38
2022-10-05T21:09:44.865Z,4.53
2022-10-05T21:11:53.983Z,4.00
2022-10-05T21:14:05.468Z,3.92
2022-10-05T21:18:21.365Z,4.55
2022-10-05T21:20:28.393Z,4.47
2022-10-05T21:22:37.314Z,4.38
2022-10-05T21:24:46.808Z,4.28
2022-10-05T21:26:55.262Z,4.50
2022-10-05T21:29:03.416Z,4.32
2022-10-05T21:31:11.113Z,4.53
2022-10-05T21:33:18.244Z,4.20
2022-10-05T21:35:25.116Z,4.10
2022-10-05T21:37:32.040Z,4.53
2022-10-05T21:39:38.864Z,4.50
2022-10-05T21:41:48.704Z,3.78
2022-10-05T21:43:56.657Z,3.45
2022-10-05T21:46:03.766Z,3.83
2022-10-05T21:48:11.175Z,4.10
2022-10-05T21:50:18.256Z,4.15
2022-10-05T21:52:25.696Z,3.97
2022-10-05T21:54:32.669Z,4.25
2022-10-05T21:56:43.383Z,4.03
2022-10-05T21:58:53.176Z,4.40
2022-10-05T22:01:00.223Z,4.38
2022-10-05T22:03:07.488Z,3.85
2022-10-05T22:05:14.272Z,3.53
2022-10-05T22:07:22.108Z,4.15
2022-10-05T22:09:28.980Z,4.13
2022-10-05T22:11:36.523Z,4.50
2022-10-05T22:13:48.672Z,4.50
2022-10-05T22:15:57.849Z,3.80
2022-10-05T22:18:04.773Z,4.25
2022-10-05T22:20:15.271Z,4.45
2022-10-05T22:22:22.107Z,4.85
2022-10-05T22:24:29.290Z,4.70
2022-10-05T22:26:37.339Z,4.63
2022-10-05T22:28:44.711Z,4.00
2022-10-05T22:30:51.550Z,4.25
2022-10-05T22:33:00.167Z,4.22
2022-10-05T22:35:11.331Z,4.50
2022-10-05T22:37:18.882Z,4.43
2022-10-05T22:39:25.806Z,4.40
2022-10-05T22:41:32.525Z,4.07
2022-10-05T22:43:39.440Z,4.50
2022-10-05T22:45:46.602Z,4.35
2022-10-05T22:47:54.019Z,4.68
2022-10-05T22:50:02.790Z,4.38
2022-10-05T22:52:09.970Z,4.15
2022-10-05T22:54:16.896Z,4.07
2022-10-05T22:56:23.720Z,4.38
2022-10-05T22:58:31.135Z,4.82
2022-10-05T23:00:57.661Z,4.53
2022-10-05T23:03:05.027Z,4.38
2022-10-05T23:05:15.641Z,4.65
2022-10-05T23:07:22.617Z,4.40
2022-10-05T23:09:29.592Z,4.53
2022-10-05T23:11:36.518Z,4.57
2022-10-05T23:13:43.648Z,4.82
2022-10-05T23:15:50.627Z,4.53
2022-10-05T23:17:58.422Z,4.80
2022-10-05T23:20:08.167Z,4.90
2022-10-05T23:22:17.137Z,5.40
2022-10-05T23:24:24.063Z,4.55
2022-10-05T23:26:30.886Z,5.22
2022-10-05T23:28:38.496Z,4.30
2022-10-05T23:30:45.716Z,4.65
2022-10-05T23:32:52.689Z,5.25
2022-10-05T23:34:59.460Z,5.53
2022-10-05T23:37:06.283Z,5.55
2022-10-05T23:39:15.153Z,5.63
2022-10-05T23:41:22.233Z,6.15
2022-10-05T23:43:29.107Z,5.25
2022-10-05T23:45:36.084Z,5.18
2022-10-05T23:47:43.268Z,5.00
2022-10-05T23:49:50.040Z,5.25
2022-10-05T23:51:57.423Z,5.28
2022-10-05T23:54:04.195Z,6.00
2022-10-05T23:56:12.758Z,6.03
2022-10-05T23:58:19.788Z,6.22
